createdAt,value
2022-12-27T00:00:44.564Z,5.90
2022-12-27T00:03:17.117Z,5.90
2022-12-27T00:05:49.185Z,5.90
2022-12-27T00:08:21.483Z,5.90
2022-12-27T00:10:53.378Z,5.90
2022-12-27T00:13:25.577Z,5.90
2022-12-27T00:16:05.027Z,5.90
2022-12-27T00:18:38.406Z,5.90
2022-12-27T00:21:14.320Z,5.90
2022-12-27T00:23:50.482Z,5.80
2022-12-27T00:26:27.790Z,5.80
2022-12-27T00:29:00.636Z,5.80
2022-12-27T00:31:33.724Z,5.80
2022-12-27T00:34:07.883Z,5.80
2022-12-27T00:36:39.999Z,5.80
2022-12-27T00:39:12.344Z,5.80
2022-12-27T00:41:44.583Z,5.80
2022-12-27T00:44:16.604Z,5.80
2022-12-27T00:46:48.603Z,5.70
2022-12-27T00:49:20.542Z,5.80
2022-12-27T00:51:52.561Z,5.70
2022-12-27T00:54:24.557Z,5.80
2022-12-27T00:56:56.522Z,5.80
2022-12-27T00:59:28.553Z,5.80
2022-12-27T01:02:00.774Z,5.80
2022-12-27T01:04:34.355Z,5.80
2022-12-27T01:07:06.344Z,5.80
2022-12-27T01:09:38.301Z,5.80
2022-12-27T01:12:10.249Z,5.80
2022-12-27T01:14:42.765Z,5.80
2022-12-27T01:17:15.069Z,5.80
2022-12-27T01:19:47.084Z,5.80
2022-12-27T01:22:19.026Z,5.80
2022-12-27T01:24:51.121Z,5.80
2022-12-27T01:27:23.162Z,5.80
2022-12-27T01:29:55.060Z,5.80
2022-12-27T01:32:27.164Z,5.80
2022-12-27T01:34:59.266Z,5.80
2022-12-27T01:37:31.334Z,5.80
2022-12-27T01:40:03.594Z,5.80
2022-12-27T01:42:54.346Z,5.80
2022-12-27T01:45:29.740Z,5.80
2022-12-27T01:48:16.178Z,5.80
2022-12-27T01:50:55.645Z,5.80
2022-12-27T01:53:38.926Z,5.80
2022-12-27T01:56:30.378Z,5.80
2022-12-27T01:59:09.977Z,5.80
2022-12-27T02:01:47.950Z,5.80
2022-12-27T02:04:26.031Z,5.80
2022-12-27T02:06:59.708Z,5.80
2022-12-27T02:09:42.300Z,5.80
2022-12-27T02:12:15.506Z,5.80
2022-12-27T02:14:49.752Z,5.80
2022-12-27T02:17:30.633Z,5.80
2022-12-27T02:20:19.274Z,5.80
2022-12-27T02:23:15.669Z,5.80
2022-12-27T02:25:50.270Z,5.80
2022-12-27T02:29:02.940Z,5.80
2022-12-27T02:32:08.002Z,5.80
2022-12-27T02:35:30.391Z,5.80
2022-12-27T02:38:14.255Z,5.80
2022-12-27T02:41:06.695Z,5.80
2022-12-27T02:43:57.311Z,5.70
2022-12-27T02:46:49.732Z,5.80
2022-12-27T02:49:57.087Z,5.80
2022-12-27T02:53:10.895Z,5.80
2022-12-27T02:55:42.747Z,5.80
2022-12-27T02:58:26.684Z,5.80
2022-12-27T03:02:04.531Z,5.80
2022-12-27T03:05:04.173Z,5.80
2022-12-27T03:08:02.853Z,5.80
2022-12-27T03:11:14.031Z,5.80
2022-12-27T03:14:48.101Z,5.80
2022-12-27T03:17:49.979Z,5.80
2022-12-27T03:20:41.066Z,5.90
2022-12-27T03:23:31.941Z,5.90
2022-12-27T03:26:08.428Z,5.90
2022-12-27T03:29:01.094Z,5.90
2022-12-27T03:31:58.103Z,5.90
2022-12-27T03:34:40.056Z,5.90
2022-12-27T03:37:40.124Z,5.90
2022-12-27T03:40:38.963Z,5.90
2022-12-27T03:43:16.557Z,5.90
2022-12-27T03:46:21.249Z,5.90
2022-12-27T03:49:30.765Z,5.90
2022-12-27T03:52:11.519Z,5.90
2022-12-27T03:54:46.948Z,5.90
2022-12-27T03:57:23.951Z,5.90
2022-12-27T03:59:55.934Z,5.90
2022-12-27T04:02:28.095Z,5.90
2022-12-27T04:05:00.151Z,5.90
2022-12-27T04:07:32.185Z,5.90
2022-12-27T04:10:23.388Z,5.90
2022-12-27T04:13:13.897Z,5.90
2022-12-27T04:16:04.398Z,5.90
2022-12-27T04:18:54.719Z,5.80
2022-12-27T04:21:45.251Z,5.80
2022-12-27T04:24:35.824Z,5.80
2022-12-27T04:27:26.385Z,5.80
2022-12-27T04:30:16.619Z,5.80
2022-12-27T04:33:07.125Z,5.80
2022-12-27T04:35:39.154Z,5.80
2022-12-27T04:38:11.122Z,5.80
2022-12-27T04:41:01.450Z,5.80
2022-12-27T04:43:51.970Z,5.80
2022-12-27T04:46:46.322Z,5.80
2022-12-27T04:49:42.682Z,5.80
2022-12-27T04:52:37.548Z,5.80
2022-12-27T04:55:26.252Z,5.80
2022-12-27T04:57:59.027Z,5.70
2022-12-27T05:00:50.480Z,5.70
2022-12-27T05:03:24.516Z,5.80
2022-12-27T05:05:56.706Z,5.80
2022-12-27T05:08:49.032Z,5.80
2022-12-27T05:11:40.393Z,5.70
2022-12-27T05:14:15.708Z,5.70
2022-12-27T05:16:47.712Z,5.70
2022-12-27T05:19:19.714Z,5.70
2022-12-27T05:22:10.107Z,5.70
2022-12-27T05:25:00.842Z,5.70
2022-12-27T05:27:32.851Z,5.70
2022-12-27T05:30:05.621Z,5.70
2022-12-27T05:32:37.614Z,5.70
2022-12-27T05:35:09.690Z,5.70
2022-12-27T05:37:41.660Z,5.70
2022-12-27T05:40:13.795Z,5.70
2022-12-27T05:42:45.717Z,5.70
2022-12-27T05:45:18.424Z,5.70
2022-12-27T05:47:50.374Z,5.80
2022-12-27T05:50:22.489Z,5.80
2022-12-27T05:52:55.678Z,5.80
2022-12-27T05:55:27.629Z,5.80
2022-12-27T05:57:59.591Z,5.80
2022-12-27T06:00:31.634Z,5.80
2022-12-27T06:03:04.091Z,5.80
2022-12-27T06:05:36.116Z,5.80
2022-12-27T06:08:10.271Z,5.80
2022-12-27T06:10:42.250Z,5.80
2022-12-27T06:13:14.362Z,5.80
2022-12-27T06:15:46.281Z,5.80
2022-12-27T06:18:18.224Z,5.80
2022-12-27T06:20:50.187Z,5.80
2022-12-27T06:23:22.186Z,5.80
2022-12-27T06:25:54.126Z,5.80
2022-12-27T06:28:26.046Z,5.80
2022-12-27T06:31:00.845Z,5.70
2022-12-27T06:33:33.201Z,5.80
2022-12-27T06:36:14.215Z,5.80
2022-12-27T06:38:47.342Z,5.80
2022-12-27T06:41:19.907Z,5.80
2022-12-27T06:43:57.259Z,5.90
2022-12-27T06:46:29.250Z,5.90
2022-12-27T06:49:01.306Z,5.90
2022-12-27T06:51:34.408Z,5.90
2022-12-27T06:54:06.402Z,5.90
2022-12-27T06:56:38.294Z,5.90
2022-12-27T06:59:10.238Z,5.90
2022-12-27T07:01:42.836Z,5.90
2022-12-27T07:04:14.936Z,5.90
2022-12-27T07:06:46.904Z,5.90
2022-12-27T07:09:18.952Z,5.80
2022-12-27T07:11:50.967Z,5.80
2022-12-27T07:14:22.975Z,5.80
2022-12-27T07:16:55.057Z,5.80
2022-12-27T07:19:27.057Z,5.70
2022-12-27T07:21:59.048Z,5.80
2022-12-27T07:24:33.297Z,5.80
2022-12-27T07:27:05.420Z,5.80
2022-12-27T07:29:43.521Z,5.80
2022-12-27T07:32:17.481Z,5.70
2022-12-27T07:34:49.413Z,5.70
2022-12-27T07:37:21.395Z,5.70
2022-12-27T07:39:53.451Z,5.70
2022-12-27T07:42:25.465Z,5.60
2022-12-27T07:44:57.425Z,5.60
2022-12-27T07:47:29.425Z,5.60
2022-12-27T07:50:01.431Z,5.60
2022-12-27T07:52:34.468Z,5.60
2022-12-27T07:55:06.938Z,5.60
2022-12-27T07:57:38.835Z,5.60
2022-12-27T08:00:11.570Z,5.60
2022-12-27T08:02:43.687Z,5.50
2022-12-27T08:05:15.746Z,5.60
2022-12-27T08:07:47.766Z,5.60
2022-12-27T08:10:19.710Z,5.60
2022-12-27T08:12:51.664Z,5.60
2022-12-27T08:15:23.707Z,5.60
2022-12-27T08:17:55.623Z,5.70
2022-12-27T08:20:27.649Z,5.70
2022-12-27T08:22:59.858Z,5.70
2022-12-27T08:25:31.837Z,5.70
2022-12-27T08:28:07.160Z,5.70
2022-12-27T08:30:43.541Z,5.70
2022-12-27T08:33:16.055Z,5.80
2022-12-27T08:35:53.151Z,5.80
2022-12-27T08:38:25.910Z,5.80
2022-12-27T08:40:57.931Z,5.80
2022-12-27T08:43:30.564Z,5.80
2022-12-27T08:46:05.690Z,5.90
2022-12-27T08:48:37.957Z,5.90
2022-12-27T08:51:13.185Z,5.90
2022-12-27T08:53:45.717Z,5.90
2022-12-27T08:56:17.698Z,6.00
2022-12-27T08:58:50.775Z,6.00
2022-12-27T09:01:22.870Z,6.00
2022-12-27T09:03:54.965Z,6.00
2022-12-27T09:06:27.844Z,6.10
2022-12-27T09:09:01.418Z,6.10
2022-12-27T09:11:34.900Z,6.10
2022-12-27T09:14:07.044Z,6.10
2022-12-27T09:16:39.273Z,6.10
2022-12-27T09:19:11.686Z,6.10
2022-12-27T09:21:44.166Z,6.10
2022-12-27T09:24:16.490Z,6.10
2022-12-27T09:26:48.677Z,6.20
2022-12-27T09:29:20.774Z,6.30
2022-12-27T09:31:52.683Z,6.30
2022-12-27T09:34:24.653Z,6.30
2022-12-27T09:36:56.600Z,6.40
2022-12-27T09:39:28.816Z,6.50
2022-12-27T09:45:26.090Z,6.90
2022-12-27T09:48:32.799Z,7.30
2022-12-27T09:51:25.197Z,7.80
2022-12-27T09:54:15.198Z,8.40
2022-12-27T09:57:18.488Z,8.60
2022-12-27T09:59:48.643Z,8.50
2022-12-27T10:02:25.487Z,8.20
2022-12-27T10:08:30.023Z,8.80
2022-12-27T10:11:37.204Z,9.40
2022-12-27T10:14:17.952Z,10.10
2022-12-27T10:17:40.624Z,10.70
2022-12-27T10:20:49.450Z,11.20
2022-12-27T10:23:28.843Z,11.60
2022-12-27T10:26:07.416Z,11.90
2022-12-27T10:28:46.979Z,12.00
2022-12-27T10:31:22.956Z,12.00
2022-12-27T10:33:55.212Z,12.20
2022-12-27T10:36:31.056Z,12.30
2022-12-27T10:39:12.484Z,12.40
2022-12-27T10:42:30.401Z,12.40
2022-12-27T10:45:39.543Z,12.40
2022-12-27T10:48:17.009Z,12.40
2022-12-27T10:51:18.687Z,12.60
2022-12-27T10:53:50.568Z,12.70
2022-12-27T10:56:30.218Z,12.50
2022-12-27T10:59:16.522Z,12.30
2022-12-27T11:02:17.143Z,12.60
2022-12-27T11:05:01.121Z,12.90
2022-12-27T11:07:34.892Z,12.70
2022-12-27T11:10:21.111Z,12.10
2022-12-27T11:13:05.041Z,11.40
2022-12-27T11:15:42.148Z,10.90
2022-12-27T11:18:21.219Z,10.40
2022-12-27T11:20:59.375Z,10.10
2022-12-27T11:23:42.261Z,9.70
2022-12-27T11:26:26.401Z,9.50
2022-12-27T11:29:01.785Z,9.40
2022-12-27T11:31:46.513Z,9.20
2022-12-27T11:34:30.166Z,9.10
2022-12-27T11:37:19.472Z,9.00
2022-12-27T11:39:55.183Z,8.90
2022-12-27T11:42:48.799Z,8.90
2022-12-27T11:45:40.452Z,8.90
2022-12-27T11:48:26.224Z,8.80
2022-12-27T11:51:26.985Z,8.80
2022-12-27T11:54:14.628Z,8.80
2022-12-27T11:57:05.785Z,8.80
2022-12-27T12:00:05.857Z,8.80
2022-12-27T12:03:06.651Z,8.70
2022-12-27T12:05:56.461Z,8.70
2022-12-27T12:09:13.840Z,8.70
2022-12-27T12:12:09.294Z,8.70
2022-12-27T12:15:14.995Z,8.70
2022-12-27T12:18:21.691Z,8.70
2022-12-27T12:21:28.116Z,8.70
2022-12-27T12:24:26.049Z,8.70
2022-12-27T12:27:04.253Z,8.70
2022-12-27T12:30:30.000Z,8.70
2022-12-27T12:33:23.322Z,8.70
2022-12-27T12:37:02.305Z,8.70
2022-12-27T12:40:18.601Z,8.70
2022-12-27T12:43:21.786Z,8.70
2022-12-27T12:46:32.227Z,8.70
2022-12-27T12:49:26.017Z,8.70
2022-12-27T12:52:44.595Z,8.80
2022-12-27T12:55:38.073Z,8.70
2022-12-27T12:58:37.600Z,8.70
2022-12-27T13:01:32.409Z,8.70
2022-12-27T13:04:33.493Z,8.70
2022-12-27T13:07:40.528Z,8.70
2022-12-27T13:10:32.948Z,8.70
2022-12-27T13:13:17.634Z,8.80
2022-12-27T13:16:45.484Z,8.80
2022-12-27T13:20:00.277Z,8.80
2022-12-27T13:23:07.816Z,8.80
2022-12-27T13:26:00.222Z,8.80
2022-12-27T13:29:29.631Z,8.80
2022-12-27T13:32:20.588Z,8.80
2022-12-27T13:35:33.543Z,8.80
2022-12-27T13:38:31.987Z,8.80
2022-12-27T13:41:41.259Z,8.70
2022-12-27T13:44:44.612Z,8.70
2022-12-27T13:47:35.265Z,8.70
2022-12-27T13:50:36.408Z,8.70
2022-12-27T13:53:35.653Z,8.70
2022-12-27T13:56:55.417Z,8.70
2022-12-27T13:59:51.125Z,8.80
2022-12-27T14:02:38.482Z,8.80
2022-12-27T14:05:52.139Z,8.80
2022-12-27T14:09:05.535Z,8.80
2022-12-27T14:12:06.819Z,8.80
2022-12-27T14:14:41.570Z,8.80
2022-12-27T14:18:06.849Z,8.80
2022-12-27T14:21:24.805Z,8.80
2022-12-27T14:24:28.019Z,8.90
2022-12-27T14:27:22.196Z,8.90
2022-12-27T14:30:34.776Z,8.80
2022-12-27T14:33:49.857Z,8.80
2022-12-27T14:37:04.972Z,8.80
2022-12-27T14:40:07.546Z,8.80
2022-12-27T14:43:26.842Z,8.80
2022-12-27T14:46:18.321Z,8.80
2022-12-27T14:49:35.682Z,8.80
2022-12-27T14:52:43.636Z,8.80
2022-12-27T14:55:44.510Z,8.80
2022-12-27T14:58:41.241Z,8.80
2022-12-27T15:01:19.039Z,8.80
2022-12-27T15:04:25.419Z,8.80
2022-12-27T15:07:31.021Z,8.80
2022-12-27T15:10:26.097Z,8.80
2022-12-27T15:13:40.894Z,8.80
2022-12-27T15:16:19.039Z,8.70
2022-12-27T15:19:24.135Z,8.70
2022-12-27T15:21:58.839Z,8.70
2022-12-27T15:24:59.044Z,8.70
2022-12-27T15:27:48.286Z,8.70
2022-12-27T15:30:39.546Z,8.70
2022-12-27T15:33:38.112Z,8.60
2022-12-27T15:36:35.497Z,8.70
2022-12-27T15:39:33.545Z,8.60
2022-12-27T15:42:48.494Z,8.60
2022-12-27T15:45:54.819Z,8.60
2022-12-27T15:48:41.074Z,8.70
2022-12-27T15:51:33.789Z,8.60
2022-12-27T15:54:48.851Z,8.60
2022-12-27T15:58:05.865Z,8.70
2022-12-27T16:00:38.903Z,8.70
2022-12-27T16:03:33.349Z,8.70
2022-12-27T16:06:07.818Z,8.70
2022-12-27T16:08:41.186Z,8.70
2022-12-27T16:11:13.919Z,8.70
2022-12-27T16:13:49.662Z,8.70
2022-12-27T16:16:28.501Z,8.70
2022-12-27T16:19:34.108Z,8.60
2022-12-27T16:22:52.418Z,8.60
2022-12-27T16:25:31.815Z,8.60
2022-12-27T16:28:28.874Z,8.60
2022-12-27T16:31:03.750Z,8.60
2022-12-27T16:33:41.943Z,8.60
2022-12-27T16:36:36.136Z,8.50
2022-12-27T16:39:38.964Z,8.50
2022-12-27T16:42:11.109Z,8.50
2022-12-27T16:45:06.022Z,8.50
2022-12-27T16:48:19.630Z,8.50
2022-12-27T16:51:36.599Z,8.50
2022-12-27T16:55:00.170Z,8.40
2022-12-27T16:57:43.810Z,8.40
2022-12-27T17:00:44.860Z,8.40
2022-12-27T17:03:38.421Z,8.40
2022-12-27T17:06:35.167Z,8.40
2022-12-27T17:09:10.494Z,8.30
2022-12-27T17:12:16.872Z,8.30
2022-12-27T17:14:54.680Z,8.30
2022-12-27T17:17:27.372Z,8.30
2022-12-27T17:20:17.581Z,8.30
2022-12-27T17:22:57.066Z,8.30
2022-12-27T17:25:45.454Z,8.30
2022-12-27T17:28:29.101Z,8.30
2022-12-27T17:31:24.373Z,8.30
2022-12-27T17:34:19.517Z,8.30
2022-12-27T17:37:00.680Z,8.20
2022-12-27T17:40:06.460Z,8.20
2022-12-27T17:43:19.035Z,8.20
2022-12-27T17:46:36.469Z,8.20
2022-12-27T17:49:11.514Z,8.20
2022-12-27T17:52:05.848Z,8.20
2022-12-27T17:54:56.673Z,8.20
2022-12-27T17:57:47.269Z,8.10
2022-12-27T18:00:31.115Z,8.10
2022-12-27T18:03:09.118Z,8.10
2022-12-27T18:05:45.481Z,8.10
2022-12-27T18:08:30.788Z,8.10
2022-12-27T18:11:06.100Z,8.10
2022-12-27T18:13:52.809Z,8.10
2022-12-27T18:16:40.233Z,8.10
2022-12-27T18:19:20.257Z,8.10
2022-12-27T18:22:02.423Z,8.10
2022-12-27T18:24:34.489Z,8.00
2022-12-27T18:27:17.533Z,8.10
2022-12-27T18:29:50.747Z,8.00
2022-12-27T18:32:25.690Z,8.00
2022-12-27T18:35:02.958Z,8.00
2022-12-27T18:37:39.682Z,8.00
2022-12-27T18:40:24.535Z,8.00
2022-12-27T18:42:56.768Z,8.00
2022-12-27T18:45:33.692Z,7.90
2022-12-27T18:48:12.190Z,7.90
2022-12-27T18:50:54.111Z,7.90
2022-12-27T18:53:37.761Z,7.90
2022-12-27T18:56:16.091Z,7.90
2022-12-27T18:59:01.724Z,7.90
2022-12-27T19:01:46.335Z,7.90
2022-12-27T19:04:21.905Z,7.90
2022-12-27T19:07:13.752Z,7.80
2022-12-27T19:09:48.665Z,7.80
2022-12-27T19:12:39.411Z,7.80
2022-12-27T19:15:35.484Z,7.80
2022-12-27T19:18:24.951Z,7.70
2022-12-27T19:21:03.291Z,7.70
2022-12-27T19:23:38.655Z,7.70
2022-12-27T19:26:16.875Z,7.70
2022-12-27T19:29:08.549Z,7.70
2022-12-27T19:31:45.291Z,7.60
2022-12-27T19:34:20.879Z,7.60
2022-12-27T19:36:55.741Z,7.60
2022-12-27T19:39:33.852Z,7.50
2022-12-27T19:42:14.369Z,7.50
2022-12-27T19:44:47.445Z,7.50
2022-12-27T19:47:19.360Z,7.50
2022-12-27T19:49:51.528Z,7.50
2022-12-27T19:52:27.191Z,7.50
2022-12-27T19:55:08.334Z,7.50
2022-12-27T19:57:40.670Z,7.40
2022-12-27T20:00:18.409Z,7.40
2022-12-27T20:02:50.623Z,7.40
2022-12-27T20:06:11.185Z,7.40
2022-12-27T20:08:35.358Z,7.40
2022-12-27T20:11:23.256Z,7.40
2022-12-27T20:13:55.284Z,7.40
2022-12-27T20:16:27.414Z,7.40
2022-12-27T20:18:59.766Z,7.40
2022-12-27T20:21:31.742Z,7.40
2022-12-27T20:24:03.974Z,7.40
2022-12-27T20:26:35.925Z,7.40
2022-12-27T20:29:08.146Z,7.40
2022-12-27T20:31:45.087Z,7.40
2022-12-27T20:34:17.607Z,7.40
2022-12-27T20:36:49.957Z,7.40
2022-12-27T20:39:22.262Z,7.40
2022-12-27T20:41:56.035Z,7.40
2022-12-27T20:44:28.159Z,7.40
2022-12-27T20:47:00.162Z,7.40
2022-12-27T20:49:32.118Z,7.40
2022-12-27T20:52:04.421Z,7.40
2022-12-27T20:54:36.442Z,7.40
2022-12-27T20:57:09.844Z,7.40
2022-12-27T20:59:41.796Z,7.40
2022-12-27T21:02:14.602Z,7.40
2022-12-27T21:04:46.716Z,7.40
2022-12-27T21:07:18.708Z,7.40
2022-12-27T21:09:50.737Z,7.40
2022-12-27T21:12:22.679Z,7.50
2022-12-27T21:14:54.679Z,7.40
2022-12-27T21:17:27.100Z,7.40
2022-12-27T21:19:59.062Z,7.50
2022-12-27T21:22:30.994Z,7.50
2022-12-27T21:25:03.198Z,7.40
2022-12-27T21:27:35.190Z,7.50
2022-12-27T21:30:08.197Z,7.50
2022-12-27T21:32:40.182Z,7.50
2022-12-27T21:35:12.898Z,7.50
2022-12-27T21:37:45.041Z,7.50
2022-12-27T21:40:17.096Z,7.50
2022-12-27T21:42:50.337Z,7.50
2022-12-27T21:45:22.282Z,7.50
2022-12-27T21:47:54.175Z,7.50
2022-12-27T21:50:26.112Z,7.60
2022-12-27T21:52:58.007Z,7.60
2022-12-27T21:55:30.034Z,7.60
2022-12-27T21:58:02.450Z,7.60
2022-12-27T22:00:34.739Z,7.60
2022-12-27T22:03:06.918Z,7.60
2022-12-27T22:05:39.107Z,7.60
2022-12-27T22:08:11.040Z,7.60
2022-12-27T22:10:44.856Z,7.60
2022-12-27T22:13:16.791Z,7.60
2022-12-27T22:16:01.576Z,7.70
2022-12-27T22:18:36.847Z,7.70
2022-12-27T22:21:15.689Z,7.70
2022-12-27T22:23:50.890Z,7.70
2022-12-27T22:26:27.072Z,7.70
2022-12-27T22:28:59.432Z,7.70
2022-12-27T22:31:35.350Z,7.70
2022-12-27T22:34:07.469Z,7.70
2022-12-27T22:36:39.444Z,7.70
2022-12-27T22:39:11.528Z,7.70
2022-12-27T22:41:43.657Z,7.70
2022-12-27T22:44:16.090Z,7.70
2022-12-27T22:49:39.982Z,7.80
2022-12-27T22:52:11.947Z,7.80
2022-12-27T22:55:05.281Z,7.80
2022-12-27T22:57:35.914Z,7.80
2022-12-27T23:00:14.368Z,7.80
2022-12-27T23:02:46.380Z,7.80
2022-12-27T23:05:18.507Z,7.80
2022-12-27T23:08:05.899Z,7.90
2022-12-27T23:10:39.092Z,7.90
2022-12-27T23:13:11.048Z,7.80
2022-12-27T23:15:43.146Z,7.90
2022-12-27T23:18:15.110Z,7.90
2022-12-27T23:21:19.145Z,7.90
2022-12-27T23:23:39.050Z,7.90
2022-12-27T23:26:17.016Z,7.90
2022-12-27T23:28:52.135Z,7.90
2022-12-27T23:31:25.876Z,7.90
2022-12-27T23:33:58.078Z,7.90
2022-12-27T23:36:32.386Z,8.00
2022-12-27T23:39:04.874Z,8.00
2022-12-27T23:41:37.249Z,8.00
2022-12-27T23:44:09.317Z,8.00
2022-12-27T23:46:41.422Z,8.00
2022-12-27T23:49:13.472Z,8.00
2022-12-27T23:51:45.497Z,8.00
2022-12-27T23:54:17.416Z,8.00
2022-12-27T23:56:49.368Z,8.00
2022-12-27T23:59:21.360Z,8.00
